Time;durP1;ratioP1;P1;durP2;ratioP2;P2;SDS_P1;SDS_P2;PMS_P1;PMS_P2;Temp;Humidity;BMP_temperature;BMP_pressure;BME280_temperature;BME280_humidity;BME280_pressure;Samples;Min_cycle;Max_cycle;Signal;HPM_P1;HPM_P2
2022/05/06 00:01:06;;;;;;;26.92;16.83;;;12.50;99.90;;;;;;5052883;28;20041;-53
2022/05/06 00:03:31;;;;;;;31.10;18.40;;;12.40;99.90;;;;;;5051737;28;20400;-46
2022/05/06 00:05:57;;;;;;;30.58;18.45;;;12.30;99.90;;;;;;5052626;28;20083;-50
2022/05/06 00:08:23;;;;;;;32.10;18.63;;;12.00;99.90;;;;;;5052486;28;20029;-52
2022/05/06 00:10:48;;;;;;;32.15;19.35;;;11.80;99.90;;;;;;5052816;28;20120;-47
2022/05/06 00:13:14;;;;;;;33.78;18.77;;;11.70;99.90;;;;;;5052446;28;20072;-49
2022/05/06 00:15:40;;;;;;;34.78;20.60;;;11.70;99.90;;;;;;5036940;28;20112;-52
2022/05/06 00:18:06;;;;;;;30.13;19.17;;;11.60;99.90;;;;;;5032469;28;20525;-47
2022/05/06 00:20:31;;;;;;;31.70;18.92;;;11.50;99.90;;;;;;5032462;28;20116;-48
2022/05/06 00:22:57;;;;;;;34.30;20.00;;;11.50;99.90;;;;;;5032481;28;20048;-51
2022/05/06 00:25:24;;;;;;;34.15;19.92;;;11.40;99.90;;;;;;5032509;28;20053;-48
2022/05/06 00:27:50;;;;;;;35.63;21.00;;;11.30;99.90;;;;;;5045946;28;20068;-50
2022/05/06 00:30:15;;;;;;;34.53;21.00;;;11.30;99.90;;;;;;5051933;28;20037;-50
2022/05/06 00:32:41;;;;;;;32.25;21.23;;;11.40;99.90;;;;;;5051459;28;20036;-51
2022/05/06 00:35:07;;;;;;;40.35;23.52;;;11.30;99.90;;;;;;5050132;28;20029;-47
2022/05/06 00:37:33;;;;;;;36.42;22.48;;;11.30;99.90;;;;;;5051056;28;20080;-51
2022/05/06 00:39:59;;;;;;;42.15;24.13;;;11.30;99.90;;;;;;5051803;28;20069;-50
2022/05/06 00:42:24;;;;;;;39.60;24.02;;;11.20;99.90;;;;;;5052080;28;20045;-47
2022/05/06 00:44:50;;;;;;;43.60;25.17;;;11.30;99.90;;;;;;5052072;28;20373;-46
2022/05/06 00:47:19;;;;;;;43.45;24.10;;;11.30;99.90;;;;;;5051610;28;20492;-50
2022/05/06 00:49:46;;;;;;;42.42;25.25;;;11.40;99.90;;;;;;5051981;28;20033;-49
2022/05/06 00:52:12;;;;;;;40.70;23.80;;;11.40;99.90;;;;;;5051475;28;20041;-50
2022/05/06 00:54:39;;;;;;;41.42;24.98;;;11.40;99.90;;;;;;5051923;28;20469;-47
2022/05/06 00:57:07;;;;;;;41.95;24.60;;;11.40;99.90;;;;;;5051398;28;20120;-49
2022/05/06 01:00:17;;;;;;;45.95;26.35;;;11.40;99.90;;;;;;5050892;28;20447;-48
2022/05/06 01:02:20;;;;;;;42.10;24.73;;;11.40;99.90;;;;;;5037349;28;20052;-49
2022/05/06 01:04:46;;;;;;;46.63;26.17;;;11.40;99.90;;;;;;5037416;28;20041;-48
2022/05/06 01:07:13;;;;;;;50.20;27.88;;;11.40;99.90;;;;;;5035608;28;20050;-48
2022/05/06 01:09:39;;;;;;;45.13;24.95;;;11.40;99.90;;;;;;5034576;28;20037;-49
2022/05/06 01:12:06;;;;;;;40.95;25.77;;;11.40;99.90;;;;;;5038090;28;20048;-49
2022/05/06 01:14:33;;;;;;;45.20;26.00;;;11.40;99.90;;;;;;5037279;28;20044;-49
2022/05/06 01:16:58;;;;;;;42.63;25.73;;;11.40;99.90;;;;;;5038613;28;20047;-50
2022/05/06 01:19:24;;;;;;;44.13;26.58;;;11.40;99.90;;;;;;5037589;28;20037;-49
2022/05/06 01:21:55;;;;;;;47.00;27.42;;;11.40;99.90;;;;;;5036349;28;20393;-49
2022/05/06 01:24:21;;;;;;;44.03;25.90;;;11.40;99.90;;;;;;5038030;28;20049;-48
2022/05/06 01:26:55;;;;;;;45.58;27.20;;;11.40;99.90;;;;;;5040679;28;20041;-50
2022/05/06 01:29:22;;;;;;;44.35;26.90;;;11.40;99.90;;;;;;5038934;28;20044;-52
2022/05/06 01:31:53;;;;;;;44.53;25.90;;;11.40;99.90;;;;;;5037347;28;20066;-50
2022/05/06 01:34:19;;;;;;;47.28;27.48;;;11.40;99.90;;;;;;5037240;28;20054;-47
2022/05/06 01:36:49;;;;;;;45.63;26.98;;;11.30;99.90;;;;;;5032834;28;20087;-49
2022/05/06 01:39:18;;;;;;;47.17;27.55;;;11.40;99.90;;;;;;5038791;28;20401;-48
2022/05/06 01:41:49;;;;;;;49.33;28.02;;;11.30;99.90;;;;;;5037472;28;20044;-51
2022/05/06 01:44:18;;;;;;;48.78;28.05;;;11.30;99.90;;;;;;5051174;28;20087;-51
2022/05/06 01:46:44;;;;;;;51.42;27.40;;;11.30;99.90;;;;;;5050508;28;20033;-48
2022/05/06 01:49:11;;;;;;;48.13;28.02;;;11.40;99.90;;;;;;5035219;28;20052;-47
2022/05/06 01:51:40;;;;;;;46.95;27.13;;;11.40;99.90;;;;;;5030411;28;20049;-48
2022/05/06 01:54:07;;;;;;;39.50;21.65;;;11.40;99.90;;;;;;5034224;28;20492;-47
2022/05/06 01:56:33;;;;;;;33.15;20.48;;;11.40;99.90;;;;;;5038201;28;20048;-51
2022/05/06 01:58:59;;;;;;;24.65;15.30;;;11.30;99.90;;;;;;5038947;28;20037;-51
2022/05/06 02:01:24;;;;;;;22.65;13.45;;;11.30;99.90;;;;;;5038571;28;20076;-48
2022/05/06 02:06:34;;;;;;;22.23;12.00;;;11.00;99.90;;;;;;5035477;28;20479;-47
2022/05/06 02:09:00;;;;;;;22.75;14.32;;;11.00;99.90;;;;;;5036969;28;20120;-51
2022/05/06 02:11:26;;;;;;;20.27;11.45;;;10.80;99.90;;;;;;5038950;28;20065;-50
2022/05/06 02:13:52;;;;;;;20.95;11.52;;;10.90;99.90;;;;;;5040262;28;20501;-51
2022/05/06 02:16:17;;;;;;;23.33;12.60;;;10.90;99.90;;;;;;5038423;28;20485;-51
2022/05/06 02:18:43;;;;;;;20.23;12.02;;;10.80;99.90;;;;;;5037596;28;20055;-48
2022/05/06 02:21:09;;;;;;;17.48;10.63;;;10.80;99.90;;;;;;5037713;28;20069;-50
2022/05/06 02:23:35;;;;;;;14.63;9.30;;;10.70;99.90;;;;;;5033954;28;20045;-49
2022/05/06 02:26:01;;;;;;;15.30;9.18;;;10.60;99.90;;;;;;5036836;28;20037;-53
2022/05/06 02:28:26;;;;;;;13.52;8.65;;;10.60;99.90;;;;;;5043459;28;20077;-49
2022/05/06 02:33:36;;;;;;;;;;;10.50;99.90;;;;;;5042590;28;20049;-51
2022/05/06 02:36:02;;;;;;;16.02;9.52;;;10.50;99.90;;;;;;5050882;28;19916;-47
2022/05/06 02:38:28;;;;;;;14.85;8.82;;;10.50;99.90;;;;;;5054439;28;20472;-50
2022/05/06 02:40:55;;;;;;;18.20;9.55;;;10.60;99.90;;;;;;5054260;28;20510;-50
2022/05/06 02:43:21;;;;;;;20.75;11.02;;;10.60;99.90;;;;;;5054247;28;20036;-48
2022/05/06 02:45:47;;;;;;;26.92;13.48;;;10.50;99.90;;;;;;5054162;28;20511;-48
2022/05/06 02:48:13;;;;;;;144.57;28.02;;;10.60;99.90;;;;;;5054213;28;20032;-48
2022/05/06 02:50:39;;;;;;;206.45;28.98;;;10.50;99.90;;;;;;5054024;28;20106;-47
2022/05/06 02:53:05;;;;;;;278.83;30.88;;;10.40;99.90;;;;;;5053760;28;20040;-47
2022/05/06 02:55:31;;;;;;;75.05;32.30;;;10.30;99.90;;;;;;5052717;28;20044;-49
2022/05/06 02:57:57;;;;;;;311.58;32.92;;;10.40;99.90;;;;;;5053637;28;20043;-51
2022/05/06 03:00:23;;;;;;;150.75;29.42;;;10.30;99.90;;;;;;5052743;28;20103;-49
2022/05/06 03:02:50;;;;;;;225.80;28.90;;;10.20;99.90;;;;;;5053435;28;20095;-51
2022/05/06 03:05:16;;;;;;;185.85;28.55;;;10.20;99.90;;;;;;5053481;28;20037;-48
2022/05/06 03:07:42;;;;;;;346.40;29.05;;;10.20;99.90;;;;;;5052573;28;20033;-48
2022/05/06 03:10:09;;;;;;;167.10;26.02;;;10.00;99.90;;;;;;5053792;28;20047;-50
2022/05/06 03:12:35;;;;;;;208.20;25.65;;;10.00;99.90;;;;;;5053624;28;20043;-48
2022/05/06 03:15:04;;;;;;;173.23;23.67;;;10.00;99.90;;;;;;5053776;28;20032;-49
2022/05/06 03:17:31;;;;;;;111.30;22.95;;;9.90;99.90;;;;;;5053320;28;20112;-49
2022/05/06 03:19:57;;;;;;;98.45;21.98;;;9.80;99.90;;;;;;5053679;28;20068;-48
2022/05/06 03:22:23;;;;;;;120.50;22.23;;;9.80;99.90;;;;;;5053601;28;20036;-52
2022/05/06 03:24:49;;;;;;;177.45;23.52;;;9.80;99.90;;;;;;5036707;28;20033;-47
2022/05/06 03:30:00;;;;;;;98.55;21.83;;;9.50;99.90;;;;;;5033610;28;20087;-49
2022/05/06 03:32:27;;;;;;;126.40;23.73;;;9.50;99.90;;;;;;5032834;28;20033;-50
2022/05/06 03:34:53;;;;;;;85.72;21.35;;;9.50;99.90;;;;;;5034789;28;20112;-48
2022/05/06 03:37:19;;;;;;;69.75;21.42;;;9.50;99.90;;;;;;5047670;28;20133;-49
2022/05/06 03:39:45;;;;;;;79.75;20.85;;;9.50;99.90;;;;;;5034162;28;20049;-48
2022/05/06 03:42:10;;;;;;;86.13;21.77;;;9.60;99.90;;;;;;5032846;28;20045;-47
2022/05/06 03:44:36;;;;;;;102.90;22.70;;;9.60;99.90;;;;;;5033043;28;20041;-50
2022/05/06 03:47:02;;;;;;;61.00;22.25;;;9.60;99.90;;;;;;5048413;28;20041;-48
2022/05/06 03:49:28;;;;;;;118.05;23.45;;;9.60;99.90;;;;;;5033052;28;20038;-49
2022/05/06 03:51:54;;;;;;;84.15;22.13;;;9.60;99.90;;;;;;5032240;28;20180;-49
2022/05/06 03:54:20;;;;;;;119.70;23.83;;;9.60;99.90;;;;;;5032949;28;20469;-49
2022/05/06 03:56:46;;;;;;;118.93;23.33;;;9.80;99.90;;;;;;5032906;28;20064;-49
2022/05/06 03:59:12;;;;;;;91.30;22.45;;;9.80;99.90;;;;;;5032467;28;20180;-50
2022/05/06 04:01:37;;;;;;;146.13;24.52;;;9.80;99.90;;;;;;5047860;28;20122;-49
2022/05/06 04:04:04;;;;;;;86.40;24.02;;;9.70;99.90;;;;;;5032381;28;20501;-51
2022/05/06 04:06:30;;;;;;;49.35;24.48;;;9.80;99.90;;;;;;5032696;28;20477;-51
2022/05/06 04:08:56;;;;;;;59.17;25.08;;;10.00;99.90;;;;;;5032754;28;20048;-48
2022/05/06 04:11:21;;;;;;;161.50;28.20;;;10.00;99.90;;;;;;5051001;28;20488;-49
2022/05/06 04:13:47;;;;;;;104.55;26.73;;;10.10;99.90;;;;;;5052197;28;20037;-51
2022/05/06 04:16:14;;;;;;;91.20;26.55;;;9.90;99.90;;;;;;5052440;28;20073;-49
2022/05/06 04:18:40;;;;;;;120.65;27.38;;;10.10;99.90;;;;;;5034168;28;20048;-51
2022/05/06 04:23:50;;;;;;;116.43;28.30;;;10.20;99.90;;;;;;5052413;28;20045;-47
2022/05/06 04:26:16;;;;;;;120.13;28.95;;;10.30;99.90;;;;;;5052168;28;20523;-48
2022/05/06 04:28:44;;;;;;;105.28;28.77;;;10.30;99.90;;;;;;5050705;28;20044;-47
2022/05/06 04:31:10;;;;;;;78.60;28.15;;;10.40;99.90;;;;;;5042798;28;20120;-49
2022/05/06 04:33:39;;;;;;;84.47;29.88;;;10.40;99.90;;;;;;5049756;28;20033;-48
2022/05/06 04:36:05;;;;;;;159.30;30.45;;;10.50;99.90;;;;;;5051944;28;20062;-48
2022/05/06 04:38:31;;;;;;;99.97;30.92;;;10.40;99.90;;;;;;5052124;28;20040;-49
2022/05/06 04:41:01;;;;;;;140.32;30.55;;;10.70;99.90;;;;;;5051597;28;20086;-50
2022/05/06 04:43:27;;;;;;;91.68;32.72;;;10.60;99.90;;;;;;5051939;28;20165;-49
2022/05/06 04:45:54;;;;;;;194.88;29.52;;;10.70;99.90;;;;;;5051904;28;20037;-48
2022/05/06 04:48:20;;;;;;;141.68;32.13;;;10.70;99.90;;;;;;5051839;28;20032;-48
2022/05/06 04:50:47;;;;;;;102.57;32.05;;;10.90;99.90;;;;;;5051648;28;20037;-49
2022/05/06 04:53:14;;;;;;;174.77;30.92;;;10.80;99.90;;;;;;5051462;28;20155;-49
2022/05/06 04:55:41;;;;;;;148.00;30.73;;;10.90;99.90;;;;;;5051802;28;20544;-51
2022/05/06 04:58:08;;;;;;;118.93;32.15;;;10.90;99.90;;;;;;5050921;28;20044;-48
2022/05/06 05:00:34;;;;;;;185.93;31.55;;;10.80;99.90;;;;;;5051399;28;20044;-49
2022/05/06 05:03:01;;;;;;;179.60;30.90;;;10.80;99.90;;;;;;5051128;28;20040;-50
2022/05/06 05:05:27;;;;;;;139.75;29.10;;;10.80;99.90;;;;;;5051290;28;20047;-51
2022/05/06 05:07:54;;;;;;;86.75;28.80;;;10.80;99.90;;;;;;5051463;28;20364;-49
2022/05/06 05:10:21;;;;;;;121.97;29.05;;;10.60;99.90;;;;;;5051505;28;20087;-51
2022/05/06 05:12:47;;;;;;;205.07;31.95;;;10.80;99.90;;;;;;5051263;28;20472;-48
2022/05/06 05:15:13;;;;;;;137.30;29.95;;;10.80;99.90;;;;;;5050033;28;20388;-50
2022/05/06 05:17:39;;;;;;;112.97;30.08;;;10.90;99.90;;;;;;5051295;28;20434;-51
2022/05/06 05:20:06;;;;;;;117.50;30.92;;;10.80;99.90;;;;;;5066443;28;20036;-48
2022/05/06 05:22:32;;;;;;;138.90;32.45;;;10.90;99.90;;;;;;5050987;28;20043;-50
2022/05/06 05:24:58;;;;;;;160.18;32.78;;;10.90;99.90;;;;;;5049954;28;20119;-46
2022/05/06 05:27:23;;;;;;;177.05;30.25;;;10.90;99.90;;;;;;5050744;28;20391;-48
2022/05/06 05:29:49;;;;;;;96.80;31.52;;;11.00;99.90;;;;;;5050929;28;20576;-50
2022/05/06 05:32:15;;;;;;;108.85;31.00;;;11.00;99.90;;;;;;5050627;28;20373;-47
2022/05/06 05:34:42;;;;;;;147.80;30.27;;;11.10;99.90;;;;;;5050672;28;20395;-49
2022/05/06 05:37:11;;;;;;;112.28;32.15;;;11.00;99.90;;;;;;5050807;28;20127;-49
2022/05/06 05:39:37;;;;;;;124.75;32.25;;;11.00;99.90;;;;;;5050714;28;20128;-48
2022/05/06 05:42:04;;;;;;;116.22;34.55;;;11.00;99.90;;;;;;5050612;28;20120;-47
2022/05/06 05:49:59;;;;;;;124.72;34.47;;;11.00;99.90;;;;;;5050930;28;20080;-49
2022/05/06 05:52:24;;;;;;;103.68;32.47;;;11.10;99.90;;;;;;5050557;28;20045;-47
2022/05/06 05:54:50;;;;;;;93.10;30.08;;;11.00;99.90;;;;;;5050483;28;20392;-51
2022/05/06 05:57:16;;;;;;;86.63;32.13;;;11.00;99.90;;;;;;5050708;28;20040;-48
2022/05/06 05:59:41;;;;;;;96.93;30.20;;;11.20;99.90;;;;;;5050408;28;20128;-51
2022/05/06 06:02:11;;;;;;;79.22;30.17;;;11.10;99.90;;;;;;5049397;28;20079;-49
2022/05/06 06:04:38;;;;;;;80.15;29.98;;;11.30;99.90;;;;;;5050687;28;20040;-52
2022/05/06 06:07:04;;;;;;;86.40;28.75;;;11.20;99.90;;;;;;5050271;28;20114;-49
2022/05/06 06:09:31;;;;;;;78.70;29.48;;;11.20;99.90;;;;;;5050659;28;20036;-52
2022/05/06 06:11:57;;;;;;;78.63;28.80;;;11.40;99.90;;;;;;5050172;28;20045;-49
2022/05/06 06:14:23;;;;;;;74.45;28.20;;;11.30;99.90;;;;;;5049731;28;20029;-50
2022/05/06 06:16:50;;;;;;;75.75;27.98;;;11.40;99.90;;;;;;5050649;28;20123;-52
2022/05/06 06:19:16;;;;;;;80.45;28.50;;;11.50;99.90;;;;;;5050060;28;20053;-53
2022/05/06 06:21:42;;;;;;;61.60;24.85;;;11.40;99.90;;;;;;5050226;28;20404;-47
2022/05/06 06:24:09;;;;;;;55.53;22.80;;;11.40;99.90;;;;;;5050185;28;20032;-47
2022/05/06 06:26:34;;;;;;;59.53;23.48;;;11.40;99.90;;;;;;5050202;28;20322;-49
2022/05/06 06:29:02;;;;;;;59.17;23.13;;;11.40;99.90;;;;;;5050544;28;20033;-49
2022/05/06 06:31:31;;;;;;;62.00;23.33;;;11.50;99.90;;;;;;5049839;28;20044;-49
2022/05/06 06:33:59;;;;;;;56.35;22.73;;;11.60;99.90;;;;;;5050046;28;20037;-48
2022/05/06 06:36:26;;;;;;;54.83;21.70;;;11.50;99.90;;;;;;5050673;28;20037;-50
2022/05/06 06:38:52;;;;;;;60.90;22.95;;;11.70;99.90;;;;;;5050180;28;20033;-50
2022/05/06 06:41:18;;;;;;;56.28;22.65;;;11.70;99.90;;;;;;5050209;28;20048;-51
2022/05/06 06:43:44;;;;;;;53.20;21.90;;;11.70;99.90;;;;;;5050357;28;20047;-52
2022/05/06 06:46:09;;;;;;;54.55;22.65;;;11.80;99.90;;;;;;5049739;28;20045;-49
2022/05/06 06:48:35;;;;;;;48.08;21.52;;;11.70;99.90;;;;;;5050148;28;20029;-51
2022/05/06 06:51:01;;;;;;;52.95;20.92;;;11.90;99.90;;;;;;5049748;28;20045;-52
2022/05/06 06:53:27;;;;;;;51.58;20.73;;;11.80;99.90;;;;;;5049654;28;20049;-51
2022/05/06 06:55:53;;;;;;;47.00;20.65;;;11.90;99.90;;;;;;5048889;28;20396;-48
2022/05/06 06:58:18;;;;;;;47.00;20.88;;;11.80;99.90;;;;;;5050016;28;20049;-51
2022/05/06 07:00:44;;;;;;;47.35;20.65;;;12.10;99.90;;;;;;5050101;28;20114;-50
2022/05/06 07:03:11;;;;;;;45.08;21.38;;;11.90;99.90;;;;;;5049539;28;20041;-48
2022/05/06 07:05:37;;;;;;;47.55;20.73;;;12.10;99.90;;;;;;5050132;28;20041;-49
2022/05/06 07:13:32;;;;;;;35.40;18.95;;;11.90;99.90;;;;;;5051348;28;20363;-51
2022/05/06 07:15:58;;;;;;;34.22;19.02;;;11.90;99.90;;;;;;5053554;28;20131;-50
2022/05/06 07:18:24;;;;;;;25.50;15.73;;;12.00;99.90;;;;;;5053297;28;20037;-49
2022/05/06 07:20:50;;;;;;;21.17;14.38;;;12.00;99.90;;;;;;5068557;28;20056;-49
2022/05/06 07:23:15;;;;;;;25.95;16.10;;;12.10;99.90;;;;;;5053271;28;20084;-48
2022/05/06 07:25:41;;;;;;;25.85;15.82;;;12.10;99.90;;;;;;5053429;28;20044;-46
2022/05/06 07:28:08;;;;;;;24.67;17.02;;;12.20;99.90;;;;;;5053284;28;20037;-48
2022/05/06 07:30:33;;;;;;;22.48;15.30;;;12.20;99.90;;;;;;5053135;28;20037;-51
2022/05/06 07:32:59;;;;;;;20.17;14.48;;;12.20;99.90;;;;;;5048400;28;20068;-52
2022/05/06 07:35:25;;;;;;;19.20;12.75;;;12.20;99.90;;;;;;5042270;28;20037;-50
2022/05/06 07:37:51;;;;;;;19.00;13.65;;;12.30;99.90;;;;;;5040860;28;20037;-47
2022/05/06 07:40:16;;;;;;;17.00;12.95;;;12.30;99.90;;;;;;5051611;28;20029;-50
2022/05/06 07:42:43;;;;;;;16.88;13.68;;;12.20;99.90;;;;;;5050243;28;20033;-50
2022/05/06 07:45:11;;;;;;;15.98;12.88;;;12.30;99.90;;;;;;5052276;28;20072;-50
2022/05/06 07:47:37;;;;;;;17.85;13.30;;;12.50;99.90;;;;;;5043504;28;20050;-48
2022/05/06 07:50:04;;;;;;;18.25;13.70;;;12.50;99.90;;;;;;5036700;28;20052;-50
2022/05/06 07:52:31;;;;;;;17.23;12.65;;;12.50;99.90;;;;;;5036053;28;20104;-49
2022/05/06 07:54:56;;;;;;;17.98;12.82;;;12.70;99.90;;;;;;5033780;28;20033;-51
2022/05/06 07:57:22;;;;;;;16.35;12.45;;;12.70;99.90;;;;;;5037157;28;20099;-47
2022/05/06 07:59:48;;;;;;;17.35;12.93;;;12.50;99.90;;;;;;5032732;28;20045;-49
2022/05/06 08:04:59;;;;;;;16.67;12.27;;;12.80;99.90;;;;;;5032761;28;20056;-50
2022/05/06 08:07:24;;;;;;;17.05;13.05;;;12.60;99.90;;;;;;5045573;28;20034;-49
2022/05/06 08:09:50;;;;;;;14.68;11.50;;;12.60;99.90;;;;;;5031178;28;20091;-47
2022/05/06 08:12:16;;;;;;;16.23;12.70;;;12.90;99.90;;;;;;5031472;28;20033;-48
2022/05/06 08:14:42;;;;;;;16.50;11.57;;;13.00;99.90;;;;;;5049219;28;20033;-49
2022/05/06 08:17:08;;;;;;;15.95;12.48;;;13.10;99.90;;;;;;5040972;28;20044;-48
2022/05/06 08:19:34;;;;;;;16.38;12.32;;;13.10;99.90;;;;;;5031174;28;20033;-48
2022/05/06 08:21:59;;;;;;;16.88;12.98;;;13.30;99.90;;;;;;5031113;28;20033;-49
2022/05/06 08:24:25;;;;;;;13.57;11.18;;;13.30;99.90;;;;;;5031542;28;20026;-47
2022/05/06 08:26:51;;;;;;;16.48;12.35;;;13.40;99.90;;;;;;5031160;28;20080;-51
2022/05/06 08:29:17;;;;;;;15.55;12.13;;;13.40;99.90;;;;;;5031030;28;20397;-48
2022/05/06 08:31:42;;;;;;;18.42;13.23;;;13.20;99.90;;;;;;5031222;28;20029;-49
2022/05/06 08:34:10;;;;;;;17.90;12.50;;;13.40;99.90;;;;;;5035343;28;20037;-48
2022/05/06 08:36:38;;;;;;;20.23;13.32;;;13.60;99.90;;;;;;5032133;28;20055;-50
2022/05/06 08:39:05;;;;;;;14.80;12.32;;;13.60;99.90;;;;;;5036151;28;20038;-48
2022/05/06 08:41:31;;;;;;;15.35;12.07;;;13.70;99.90;;;;;;5035872;28;20420;-48
2022/05/06 08:52:22;;;;;;;15.13;11.43;;;14.50;99.90;;;;;;5048658;28;20056;-48
2022/05/06 08:54:51;;;;;;;17.73;11.45;;;14.40;99.90;;;;;;5049386;28;20069;-51
2022/05/06 08:57:17;;;;;;;12.95;10.75;;;14.40;99.90;;;;;;5047382;28;20061;-49
2022/05/06 08:59:48;;;;;;;14.73;11.02;;;14.40;99.90;;;;;;5049816;28;20040;-49
2022/05/06 09:02:14;;;;;;;14.18;11.00;;;14.70;99.90;;;;;;5046980;28;20041;-50
2022/05/06 09:04:40;;;;;;;12.57;9.63;;;14.70;99.90;;;;;;5049773;28;20459;-50
2022/05/06 09:07:20;;;;;;;12.85;9.98;;;14.90;99.90;;;;;;5042034;28;20568;-50
2022/05/06 09:10:14;;;;;;;13.57;9.98;;;14.90;99.90;;;;;;5040082;28;20036;-47
2022/05/06 09:12:42;;;;;;;12.63;9.18;;;15.00;99.90;;;;;;5046668;28;20041;-49
2022/05/06 09:17:53;;;;;;;11.60;8.23;;;15.30;99.90;;;;;;5036759;28;20057;-51
2022/05/06 09:20:20;;;;;;;12.13;7.93;;;15.20;99.90;;;;;;5040706;28;20037;-47
2022/05/06 09:22:50;;;;;;;10.77;8.00;;;15.20;99.90;;;;;;5048187;28;20477;-48
2022/05/06 09:25:42;;;;;;;11.18;7.93;;;15.50;99.90;;;;;;5048727;28;20033;-51
2022/05/06 09:28:26;;;;;;;11.70;8.57;;;15.70;99.90;;;;;;5038928;28;20048;-49
2022/05/06 09:31:06;;;;;;;11.55;8.95;;;16.10;99.90;;;;;;5048016;28;20108;-49
2022/05/06 09:33:42;;;;;;;11.70;9.43;;;16.30;99.90;;;;;;5047094;28;20044;-48
2022/05/06 09:36:29;;;;;;;12.07;8.98;;;16.90;99.90;;;;;;5040356;28;20044;-48
2022/05/06 09:39:06;;;;;;;11.68;8.88;;;17.10;99.90;;;;;;5040380;28;20497;-48
2022/05/06 09:41:32;;;;;;;14.77;9.43;;;17.20;99.90;;;;;;5044226;28;20086;-48
2022/05/06 09:44:03;;;;;;;13.15;8.75;;;16.80;99.90;;;;;;5045247;28;20060;-48
2022/05/06 09:46:29;;;;;;;10.63;8.20;;;16.60;99.90;;;;;;5040361;28;20076;-47
2022/05/06 09:48:57;;;;;;;13.27;8.65;;;16.70;99.90;;;;;;5043032;28;20044;-50
2022/05/06 09:51:33;;;;;;;11.15;7.90;;;16.50;99.90;;;;;;5039150;28;20159;-50
2022/05/06 09:54:00;;;;;;;12.05;8.43;;;16.60;99.90;;;;;;5045953;28;20080;-52
2022/05/06 09:56:27;;;;;;;11.15;8.52;;;16.70;99.90;;;;;;5042265;28;20131;-48
2022/05/06 09:58:54;;;;;;;10.77;8.00;;;16.70;99.90;;;;;;5044070;28;20507;-48
2022/05/06 10:01:21;;;;;;;10.68;8.23;;;16.90;99.90;;;;;;5035452;28;20484;-52
2022/05/06 10:03:47;;;;;;;9.82;8.05;;;17.00;99.90;;;;;;5040384;28;20492;-49
2022/05/06 10:06:13;;;;;;;12.05;8.60;;;17.20;99.90;;;;;;5039007;28;20396;-50
2022/05/06 10:08:46;;;;;;;11.55;8.27;;;17.10;99.90;;;;;;5044728;28;20099;-50
2022/05/06 10:11:14;;;;;;;11.88;8.73;;;17.10;99.90;;;;;;5040315;28;20045;-49
2022/05/06 10:13:46;;;;;;;11.02;8.10;;;17.30;99.90;;;;;;5042946;28;20045;-50
2022/05/06 10:16:12;;;;;;;11.38;8.27;;;17.40;99.90;;;;;;5038280;28;20040;-49
2022/05/06 10:18:43;;;;;;;10.55;8.50;;;17.60;99.90;;;;;;5037930;28;20033;-52
2022/05/06 10:21:14;;;;;;;11.82;8.95;;;17.60;99.90;;;;;;5038297;28;20072;-50
2022/05/06 10:23:42;;;;;;;11.95;8.13;;;17.50;99.90;;;;;;5037658;28;20037;-52
2022/05/06 10:26:08;;;;;;;21.05;8.75;;;17.80;99.90;;;;;;5042853;28;20069;-50
2022/05/06 10:34:27;;;;;;;13.68;8.95;;;17.90;99.90;;;;;;5019995;28;20119;-51
2022/05/06 10:36:54;;;;;;;13.95;8.93;;;17.80;99.90;;;;;;5020345;28;20069;-50
2022/05/06 10:39:29;;;;;;;12.48;8.35;;;18.10;99.90;;;;;;5034934;28;20054;-48
2022/05/06 10:42:09;;;;;;;12.80;8.95;;;18.40;99.90;;;;;;5061672;28;20041;-51
2022/05/06 10:44:37;;;;;;;15.88;8.88;;;18.40;99.90;;;;;;5047628;28;20045;-52
2022/05/06 10:47:16;;;;;;;14.45;8.32;;;18.40;99.90;;;;;;5048374;28;20045;-52
2022/05/06 10:49:43;;;;;;;12.07;8.50;;;18.60;99.90;;;;;;5049666;28;20045;-51
2022/05/06 10:54:49;;;;;;;12.80;8.50;;;18.60;99.90;;;;;;5049419;28;20091;-50
2022/05/06 10:57:20;;;;;;;11.18;6.82;;;18.70;99.90;;;;;;5045976;28;20129;-50
2022/05/06 10:59:58;;;;;;;11.68;6.88;;;18.60;99.90;;;;;;5043982;28;20358;-50
2022/05/06 11:02:27;;;;;;;13.57;6.80;;;18.50;99.90;;;;;;5050889;28;20040;-49
2022/05/06 11:05:00;;;;;;;11.98;7.03;;;18.80;99.90;;;;;;5035484;28;20381;-50
2022/05/06 11:07:27;;;;;;;10.93;6.28;;;19.10;99.90;;;;;;5031748;28;20042;-51
2022/05/06 11:09:53;;;;;;;10.52;5.55;;;19.30;99.90;;;;;;5031955;28;20038;-52
2022/05/06 11:12:28;;;;;;;7.63;4.90;;;19.20;99.90;;;;;;5031793;28;20115;-51
2022/05/06 11:14:54;;;;;;;8.88;6.05;;;19.50;99.90;;;;;;5031517;28;20091;-53
2022/05/06 11:17:22;;;;;;;11.02;7.20;;;19.70;99.90;;;;;;5031625;28;20056;-51
2022/05/06 11:19:48;;;;;;;9.95;6.57;;;19.60;99.90;;;;;;5031604;28;20077;-50
2022/05/06 11:22:15;;;;;;;11.00;7.03;;;19.80;99.90;;;;;;5031665;28;20416;-51
2022/05/06 11:24:40;;;;;;;11.20;7.57;;;19.80;99.90;;;;;;5046744;28;20061;-51
2022/05/06 11:27:20;;;;;;;15.88;7.63;;;20.00;99.90;;;;;;5030892;28;20480;-48
2022/05/06 11:29:59;;;;;;;11.57;7.38;;;20.10;99.90;;;;;;5030196;28;20040;-48
2022/05/06 11:32:29;;;;;;;11.30;7.80;;;20.30;99.90;;;;;;5031219;28;20535;-49
2022/05/06 11:35:09;;;;;;;11.50;7.97;;;20.50;99.90;;;;;;5031070;28;20063;-50
2022/05/06 11:37:39;;;;;;;11.38;6.80;;;20.30;99.90;;;;;;5042500;28;20100;-50
2022/05/06 11:42:49;;;;;;;9.63;6.57;;;20.60;99.90;;;;;;5047541;28;20049;-49
2022/05/06 11:48:22;;;;;;;10.32;6.75;;;20.50;99.90;;;;;;5042435;28;20697;-49
2022/05/06 11:50:55;;;;;;;8.80;6.25;;;20.50;99.90;;;;;;5045691;28;20045;-52
2022/05/06 11:53:25;;;;;;;;;;;20.70;99.90;;;;;;5048561;28;20128;-49
2022/05/06 11:55:52;;;;;;;8.80;5.50;;;20.90;99.90;;;;;;5047421;28;19940;-53
2022/05/06 11:58:18;;;;;;;21.55;5.70;;;21.20;99.90;;;;;;5047864;28;20041;-49
2022/05/06 12:00:45;;;;;;;10.60;5.45;;;21.20;99.90;;;;;;5047678;28;20037;-49
2022/05/06 12:03:12;;;;;;;6.30;4.00;;;21.00;99.90;;;;;;5046788;28;20045;-50
2022/05/06 12:05:40;;;;;;;6.88;3.28;;;20.90;99.90;;;;;;5051017;28;20116;-49
2022/05/06 12:08:07;;;;;;;5.60;3.05;;;21.00;99.90;;;;;;5050585;28;20515;-53
2022/05/06 12:10:35;;;;;;;3.88;2.40;;;21.00;99.70;;;;;;5050261;28;20032;-53
2022/05/06 12:13:10;;;;;;;4.97;2.85;;;21.10;99.90;;;;;;5049612;28;20439;-50
2022/05/06 12:15:38;;;;;;;5.07;3.15;;;21.20;99.40;;;;;;5048917;28;20052;-51
2022/05/06 12:18:03;;;;;;;9.00;3.17;;;21.10;99.10;;;;;;5050885;28;20033;-51
2022/05/06 12:20:39;;;;;;;7.35;3.40;;;21.30;99.30;;;;;;5050306;28;20443;-51
2022/05/06 12:23:06;;;;;;;5.32;2.95;;;21.40;98.80;;;;;;5049373;28;20045;-50
2022/05/06 12:25:36;;;;;;;4.57;2.55;;;21.50;98.40;;;;;;5050182;28;20040;-52
2022/05/06 12:28:15;;;;;;;5.93;2.88;;;21.60;98.80;;;;;;5050449;28;20048;-48
2022/05/06 12:30:42;;;;;;;4.20;2.30;;;21.90;98.00;;;;;;5049489;28;20044;-50
2022/05/06 12:33:17;;;;;;;3.65;1.60;;;21.70;98.80;;;;;;5049882;28;20036;-52
2022/05/06 12:36:06;;;;;;;4.72;2.00;;;22.00;97.50;;;;;;5050504;28;20180;-51
2022/05/06 12:38:41;;;;;;;3.78;1.45;;;21.80;97.10;;;;;;5037623;28;20048;-48
2022/05/06 12:41:36;;;;;;;5.95;1.95;;;22.10;97.20;;;;;;5050179;28;20048;-51
2022/05/06 12:44:22;;;;;;;5.50;2.00;;;21.90;96.80;;;;;;5032519;28;20045;-52
2022/05/06 12:46:48;;;;;;;6.57;1.95;;;22.00;97.20;;;;;;5044563;28;20056;-49
2022/05/06 12:51:59;;;;;;;5.82;2.03;;;22.30;96.40;;;;;;5048273;28;20049;-48
2022/05/06 12:54:26;;;;;;;6.50;2.30;;;22.30;97.00;;;;;;5050185;28;20040;-49
2022/05/06 12:56:53;;;;;;;4.65;2.20;;;22.20;97.30;;;;;;5048193;28;20071;-51
2022/05/06 12:59:19;;;;;;;6.38;2.20;;;22.10;97.30;;;;;;5048949;28;20492;-49
2022/05/06 13:01:44;;;;;;;5.75;2.20;;;22.60;96.90;;;;;;5065241;28;20051;-49
2022/05/06 13:04:11;;;;;;;10.82;2.83;;;22.50;96.20;;;;;;5049231;28;20039;-51
2022/05/06 13:06:36;;;;;;;5.18;2.22;;;22.10;95.30;;;;;;5049644;28;20068;-49
2022/05/06 13:09:02;;;;;;;5.95;2.35;;;22.60;96.30;;;;;;5049927;28;20073;-49
2022/05/06 13:11:28;;;;;;;4.43;2.30;;;22.60;95.60;;;;;;5049617;28;20040;-50
2022/05/06 13:13:54;;;;;;;4.65;2.00;;;22.80;95.60;;;;;;5050002;28;20037;-48
2022/05/06 13:16:20;;;;;;;5.07;2.33;;;23.00;95.30;;;;;;5042129;28;20083;-51
2022/05/06 13:18:46;;;;;;;5.88;2.13;;;22.40;93.90;;;;;;5036254;28;20139;-53
2022/05/06 13:21:12;;;;;;;4.75;2.13;;;23.20;95.30;;;;;;5033005;28;20120;-52
2022/05/06 13:23:38;;;;;;;6.13;3.00;;;22.90;94.80;;;;;;5049287;28;20044;-51
2022/05/06 13:26:04;;;;;;;7.43;2.65;;;23.30;94.90;;;;;;5049319;28;20605;-52